sensor_id;sensor_type;location;lat;lon;timestamp;pressure;altitude;pressure_sealevel;temperature;humidity
12349;BME280;5974;42.710;27.258;2023-07-09T00:02:12;100157.00;;;18.03;100.00
12349;BME280;5974;42.710;27.258;2023-07-09T00:04:39;100173.50;;;18.19;100.00
12349;BME280;5974;42.710;27.258;2023-07-09T00:07:14;100161.38;;;17.66;100.00
12349;BME280;5974;42.710;27.258;2023-07-09T00:09:42;100165.28;;;17.85;100.00
12349;BME280;5974;42.710;27.258;2023-07-09T00:12:13;100147.41;;;17.64;100.00
12349;BME280;5974;42.710;27.258;2023-07-09T00:14:40;100158.28;;;17.72;100.00
12349;BME280;5974;42.710;27.258;2023-07-09T00:17:10;100161.78;;;17.72;100.00
12349;BME280;5974;42.710;27.258;2023-07-09T00:19:37;100165.41;;;17.59;100.00
12349;BME280;5974;42.710;27.258;2023-07-09T00:22:13;100159.75;;;17.51;100.00
12349;BME280;5974;42.710;27.258;2023-07-09T00:24:42;100166.72;;;17.39;100.00
12349;BME280;5974;42.710;27.258;2023-07-09T00:27:11;100156.66;;;17.19;100.00
12349;BME280;5974;42.710;27.258;2023-07-09T00:29:39;100150.16;;;17.10;100.00
12349;BME280;5974;42.710;27.258;2023-07-09T00:32:11;100162.13;;;17.03;100.00
12349;BME280;5974;42.710;27.258;2023-07-09T00:34:40;100173.16;;;16.96;100.00
12349;BME280;5974;42.710;27.258;2023-07-09T00:37:10;100147.84;;;16.66;100.00
12349;BME280;5974;42.710;27.258;2023-07-09T00:39:39;100174.53;;;16.89;100.00
12349;BME280;5974;42.710;27.258;2023-07-09T00:42:13;100161.34;;;16.89;100.00
12349;BME280;5974;42.710;27.258;2023-07-09T00:44:43;100170.53;;;16.69;100.00
12349;BME280;5974;42.710;27.258;2023-07-09T00:47:23;100163.97;;;16.62;100.00
12349;BME280;5974;42.710;27.258;2023-07-09T00:50:00;100165.16;;;16.70;100.00
12349;BME280;5974;42.710;27.258;2023-07-09T00:52:30;100117.16;;;16.37;100.00
12349;BME280;5974;42.710;27.258;2023-07-09T00:55:04;100160.47;;;16.61;100.00
12349;BME280;5974;42.710;27.258;2023-07-09T00:57:35;100162.56;;;16.56;100.00
12349;BME280;5974;42.710;27.258;2023-07-09T01:00:07;100157.00;;;16.61;100.00
12349;BME280;5974;42.710;27.258;2023-07-09T01:02:36;100165.22;;;16.56;100.00
12349;BME280;5974;42.710;27.258;2023-07-09T01:05:04;100170.13;;;16.48;100.00
12349;BME280;5974;42.710;27.258;2023-07-09T01:07:32;100168.69;;;16.43;100.00
12349;BME280;5974;42.710;27.258;2023-07-09T01:09:59;100176.72;;;16.41;100.00
12349;BME280;5974;42.710;27.258;2023-07-09T01:12:26;100172.19;;;16.43;100.00
12349;BME280;5974;42.710;27.258;2023-07-09T01:14:57;100173.91;;;16.16;100.00
12349;BME280;5974;42.710;27.258;2023-07-09T01:17:26;100177.50;;;16.29;100.00
12349;BME280;5974;42.710;27.258;2023-07-09T01:19:54;100171.38;;;16.28;100.00
12349;BME280;5974;42.710;27.258;2023-07-09T01:22:23;100172.41;;;16.26;100.00
12349;BME280;5974;42.710;27.258;2023-07-09T01:24:56;100169.69;;;16.13;100.00
12349;BME280;5974;42.710;27.258;2023-07-09T01:27:29;100175.09;;;15.84;100.00
12349;BME280;5974;42.710;27.258;2023-07-09T01:29:56;100181.28;;;15.97;100.00
12349;BME280;5974;42.710;27.258;2023-07-09T01:32:25;100174.22;;;15.97;100.00
12349;BME280;5974;42.710;27.258;2023-07-09T01:34:54;100172.63;;;15.95;100.00
12349;BME280;5974;42.710;27.258;2023-07-09T01:37:25;100181.84;;;15.88;100.00
12349;BME280;5974;42.710;27.258;2023-07-09T01:39:53;100184.28;;;15.91;100.00
12349;BME280;5974;42.710;27.258;2023-07-09T01:42:22;100177.53;;;16.15;100.00
12349;BME280;5974;42.710;27.258;2023-07-09T01:44:52;100176.00;;;16.11;100.00
12349;BME280;5974;42.710;27.258;2023-07-09T01:47:19;100176.28;;;16.06;100.00
12349;BME280;5974;42.710;27.258;2023-07-09T01:49:49;100169.47;;;16.31;100.00
12349;BME280;5974;42.710;27.258;2023-07-09T01:52:16;100179.34;;;16.41;100.00
12349;BME280;5974;42.710;27.258;2023-07-09T01:54:46;100177.28;;;16.60;100.00
12349;BME280;5974;42.710;27.258;2023-07-09T01:57:17;100170.81;;;16.78;100.00
12349;BME280;5974;42.710;27.258;2023-07-09T01:59:48;100167.69;;;16.99;100.00
12349;BME280;5974;42.710;27.258;2023-07-09T02:02:16;100165.44;;;17.32;100.00
12349;BME280;5974;42.710;27.258;2023-07-09T02:04:49;100123.34;;;17.29;100.00
12349;BME280;5974;42.710;27.258;2023-07-09T02:07:18;100157.78;;;17.92;100.00
12349;BME280;5974;42.710;27.258;2023-07-09T02:09:47;100163.13;;;18.16;100.00
12349;BME280;5974;42.710;27.258;2023-07-09T02:12:15;100167.50;;;18.40;100.00
12349;BME280;5974;42.710;27.258;2023-07-09T02:14:43;100167.28;;;18.56;100.00
12349;BME280;5974;42.710;27.258;2023-07-09T02:17:11;100164.13;;;18.75;100.00
12349;BME280;5974;42.710;27.258;2023-07-09T02:19:38;100165.50;;;18.80;100.00
12349;BME280;5974;42.710;27.258;2023-07-09T02:22:06;100166.94;;;19.08;100.00
12349;BME280;5974;42.710;27.258;2023-07-09T02:24:33;100165.91;;;19.22;100.00
12349;BME280;5974;42.710;27.258;2023-07-09T02:27:04;100170.38;;;19.32;100.00
12349;BME280;5974;42.710;27.258;2023-07-09T02:29:32;100167.91;;;19.42;100.00
12349;BME280;5974;42.710;27.258;2023-07-09T02:32:00;100172.78;;;19.59;100.00
12349;BME280;5974;42.710;27.258;2023-07-09T02:34:28;100160.72;;;19.66;100.00
12349;BME280;5974;42.710;27.258;2023-07-09T02:36:56;100177.16;;;19.93;100.00
12349;BME280;5974;42.710;27.258;2023-07-09T02:39:25;100175.00;;;19.98;100.00
12349;BME280;5974;42.710;27.258;2023-07-09T02:41:51;100178.97;;;20.04;100.00
12349;BME280;5974;42.710;27.258;2023-07-09T02:44:20;100133.97;;;19.69;100.00
12349;BME280;5974;42.710;27.258;2023-07-09T02:46:47;100181.13;;;20.21;100.00
12349;BME280;5974;42.710;27.258;2023-07-09T02:49:14;100182.47;;;20.16;100.00
12349;BME280;5974;42.710;27.258;2023-07-09T02:51:41;100146.28;;;20.03;99.96
12349;BME280;5974;42.710;27.258;2023-07-09T02:54:08;100180.78;;;20.37;99.79
12349;BME280;5974;42.710;27.258;2023-07-09T02:56:35;100184.78;;;20.42;98.20
12349;BME280;5974;42.710;27.258;2023-07-09T02:59:02;100185.03;;;20.39;97.56
12349;BME280;5974;42.710;27.258;2023-07-09T03:01:31;100187.78;;;20.49;97.11
12349;BME280;5974;42.710;27.258;2023-07-09T03:04:00;100189.13;;;20.54;96.23
12349;BME280;5974;42.710;27.258;2023-07-09T03:06:27;100164.84;;;20.48;94.06
12349;BME280;5974;42.710;27.258;2023-07-09T03:08:54;100183.34;;;20.38;94.63
12349;BME280;5974;42.710;27.258;2023-07-09T03:11:21;100189.94;;;20.55;93.35
12349;BME280;5974;42.710;27.258;2023-07-09T03:13:48;100185.06;;;20.71;92.07
12349;BME280;5974;42.710;27.258;2023-07-09T03:16:16;100193.09;;;21.03;90.38
12349;BME280;5974;42.710;27.258;2023-07-09T03:18:45;100190.22;;;21.27;90.47
12349;BME280;5974;42.710;27.258;2023-07-09T03:21:12;100185.69;;;21.18;90.06
12349;BME280;5974;42.710;27.258;2023-07-09T03:23:39;100188.84;;;21.12;89.31
12349;BME280;5974;42.710;27.258;2023-07-09T03:26:06;100196.50;;;21.26;88.06
12349;BME280;5974;42.710;27.258;2023-07-09T03:28:33;100194.44;;;21.29;87.60
12349;BME280;5974;42.710;27.258;2023-07-09T03:31:00;100182.66;;;21.43;86.84
12349;BME280;5974;42.710;27.258;2023-07-09T03:33:27;100180.25;;;21.40;87.24
12349;BME280;5974;42.710;27.258;2023-07-09T03:35:55;100182.00;;;21.50;85.21
12349;BME280;5974;42.710;27.258;2023-07-09T03:38:22;100181.28;;;21.48;84.95
12349;BME280;5974;42.710;27.258;2023-07-09T03:40:50;100179.53;;;21.58;84.42
12349;BME280;5974;42.710;27.258;2023-07-09T03:43:18;100171.88;;;21.65;83.95
12349;BME280;5974;42.710;27.258;2023-07-09T03:45:45;100162.97;;;21.55;82.64
12349;BME280;5974;42.710;27.258;2023-07-09T03:48:13;100182.59;;;21.84;82.62
12349;BME280;5974;42.710;27.258;2023-07-09T03:50:41;100181.22;;;21.80;81.01
12349;BME280;5974;42.710;27.258;2023-07-09T03:53:11;100176.78;;;21.90;82.21
12349;BME280;5974;42.710;27.258;2023-07-09T03:55:38;100182.94;;;22.11;81.75
12349;BME280;5974;42.710;27.258;2023-07-09T03:58:05;100181.41;;;22.19;80.97
12349;BME280;5974;42.710;27.258;2023-07-09T04:00:33;100182.44;;;22.37;79.78
12349;BME280;5974;42.710;27.258;2023-07-09T04:03:00;100186.09;;;22.66;78.01
12349;BME280;5974;42.710;27.258;2023-07-09T04:05:27;100185.97;;;22.96;75.45
12349;BME280;5974;42.710;27.258;2023-07-09T04:07:54;100200.44;;;22.94;75.41
12349;BME280;5974;42.710;27.258;2023-07-09T04:10:23;100199.91;;;23.29;74.58
12349;BME280;5974;42.710;27.258;2023-07-09T04:12:49;100195.91;;;23.90;71.82
12349;BME280;5974;42.710;27.258;2023-07-09T04:15:16;100187.38;;;24.96;68.60
12349;BME280;5974;42.710;27.258;2023-07-09T04:17:43;100202.72;;;26.16;64.73
12349;BME280;5974;42.710;27.258;2023-07-09T04:20:11;100191.78;;;26.09;62.91
12349;BME280;5974;42.710;27.258;2023-07-09T04:22:38;100201.25;;;25.70;62.67
12349;BME280;5974;42.710;27.258;2023-07-09T04:25:07;100195.53;;;26.16;61.72
12349;BME280;5974;42.710;27.258;2023-07-09T04:27:36;100200.97;;;26.74;60.90
12349;BME280;5974;42.710;27.258;2023-07-09T04:30:04;100165.28;;;26.32;60.37
12349;BME280;5974;42.710;27.258;2023-07-09T04:32:31;100202.72;;;26.91;59.59
12349;BME280;5974;42.710;27.258;2023-07-09T04:34:58;100209.41;;;28.25;56.48
12349;BME280;5974;42.710;27.258;2023-07-09T04:37:25;100203.19;;;28.63;54.97
12349;BME280;5974;42.710;27.258;2023-07-09T04:39:52;100201.19;;;29.19;52.54
12349;BME280;5974;42.710;27.258;2023-07-09T04:42:19;100198.56;;;30.23;51.02
12349;BME280;5974;42.710;27.258;2023-07-09T04:44:47;100201.19;;;30.45;49.26
12349;BME280;5974;42.710;27.258;2023-07-09T04:47:15;100212.22;;;29.54;50.11
12349;BME280;5974;42.710;27.258;2023-07-09T04:49:42;100206.66;;;30.37;47.81
12349;BME280;5974;42.710;27.258;2023-07-09T04:52:09;100202.34;;;29.47;49.14
12349;BME280;5974;42.710;27.258;2023-07-09T04:54:39;100206.59;;;29.79;49.83
12349;BME280;5974;42.710;27.258;2023-07-09T04:57:06;100210.47;;;29.99;48.64
12349;BME280;5974;42.710;27.258;2023-07-09T04:59:33;100205.66;;;29.34;50.25
12349;BME280;5974;42.710;27.258;2023-07-09T05:02:01;100204.13;;;30.21;47.24
12349;BME280;5974;42.710;27.258;2023-07-09T05:04:29;100210.59;;;31.21;46.76
12349;BME280;5974;42.710;27.258;2023-07-09T05:06:56;100202.34;;;31.99;44.14
12349;BME280;5974;42.710;27.258;2023-07-09T05:09:24;100191.41;;;30.44;46.26
12349;BME280;5974;42.710;27.258;2023-07-09T05:11:51;100203.16;;;30.87;46.19
12349;BME280;5974;42.710;27.258;2023-07-09T05:14:17;100199.00;;;29.82;46.69
12349;BME280;5974;42.710;27.258;2023-07-09T05:16:45;100184.59;;;30.34;46.13
12349;BME280;5974;42.710;27.258;2023-07-09T05:19:13;100195.41;;;31.41;45.35
12349;BME280;5974;42.710;27.258;2023-07-09T05:21:40;100199.31;;;30.60;44.81
12349;BME280;5974;42.710;27.258;2023-07-09T05:24:07;100212.00;;;30.96;44.60
12349;BME280;5974;42.710;27.258;2023-07-09T05:26:34;100191.50;;;30.36;45.93
12349;BME280;5974;42.710;27.258;2023-07-09T05:29:02;100214.53;;;31.19;44.33
12349;BME280;5974;42.710;27.258;2023-07-09T05:31:29;100176.72;;;31.95;43.60
12349;BME280;5974;42.710;27.258;2023-07-09T05:33:56;100211.06;;;33.37;41.78
12349;BME280;5974;42.710;27.258;2023-07-09T05:36:25;100161.81;;;33.20;40.48
12349;BME280;5974;42.710;27.258;2023-07-09T05:38:52;100194.44;;;32.73;40.44
12349;BME280;5974;42.710;27.258;2023-07-09T05:41:19;100196.63;;;31.88;42.15
12349;BME280;5974;42.710;27.258;2023-07-09T05:43:46;100200.56;;;32.13;41.49
12349;BME280;5974;42.710;27.258;2023-07-09T05:46:13;100204.22;;;31.99;42.08
12349;BME280;5974;42.710;27.258;2023-07-09T05:48:41;100198.75;;;31.64;41.71
12349;BME280;5974;42.710;27.258;2023-07-09T05:51:07;100214.03;;;31.79;42.05
12349;BME280;5974;42.710;27.258;2023-07-09T05:53:36;100196.31;;;31.27;42.62
12349;BME280;5974;42.710;27.258;2023-07-09T05:56:02;100201.69;;;31.69;42.33
12349;BME280;5974;42.710;27.258;2023-07-09T05:58:29;100196.84;;;32.14;42.56
12349;BME280;5974;42.710;27.258;2023-07-09T06:00:57;100202.47;;;34.25;39.98
12349;BME280;5974;42.710;27.258;2023-07-09T06:03:25;100204.22;;;34.64;38.87
12349;BME280;5974;42.710;27.258;2023-07-09T06:05:52;100186.38;;;31.77;40.86
12349;BME280;5974;42.710;27.258;2023-07-09T06:08:19;100194.38;;;32.19;41.24
12349;BME280;5974;42.710;27.258;2023-07-09T06:10:59;100188.19;;;31.69;40.51
12349;BME280;5974;42.710;27.258;2023-07-09T06:13:27;100198.75;;;31.64;42.20
12349;BME280;5974;42.710;27.258;2023-07-09T06:15:56;100187.78;;;32.76;40.26
12349;BME280;5974;42.710;27.258;2023-07-09T06:18:24;100196.09;;;32.27;40.23
12349;BME280;5974;42.710;27.258;2023-07-09T06:20:57;100170.06;;;32.32;40.13
12349;BME280;5974;42.710;27.258;2023-07-09T06:23:24;100189.22;;;32.71;40.59
12349;BME280;5974;42.710;27.258;2023-07-09T06:25:51;100185.06;;;32.00;40.56
12349;BME280;5974;42.710;27.258;2023-07-09T06:28:23;100189.16;;;31.90;40.30
12349;BME280;5974;42.710;27.258;2023-07-09T06:30:50;100195.53;;;32.98;39.96
12349;BME280;5974;42.710;27.258;2023-07-09T06:33:18;100182.91;;;33.32;38.79
12349;BME280;5974;42.710;27.258;2023-07-09T06:35:46;100198.31;;;32.16;40.81
12349;BME280;5974;42.710;27.258;2023-07-09T06:38:14;100179.25;;;32.38;40.29
12349;BME280;5974;42.710;27.258;2023-07-09T06:40:41;100182.53;;;32.67;39.67
12349;BME280;5974;42.710;27.258;2023-07-09T06:43:08;100205.94;;;32.82;39.49
12349;BME280;5974;42.710;27.258;2023-07-09T06:45:36;100200.81;;;31.62;41.46
12349;BME280;5974;42.710;27.258;2023-07-09T06:48:04;100196.94;;;32.74;39.62
12349;BME280;5974;42.710;27.258;2023-07-09T06:50:33;100155.97;;;33.10;39.08
12349;BME280;5974;42.710;27.258;2023-07-09T06:53:00;100184.88;;;32.02;40.88
12349;BME280;5974;42.710;27.258;2023-07-09T06:55:27;100158.84;;;32.35;40.70
12349;BME280;5974;42.710;27.258;2023-07-09T06:57:54;100193.09;;;33.16;38.81
12349;BME280;5974;42.710;27.258;2023-07-09T07:00:21;100193.75;;;33.18;38.74
12349;BME280;5974;42.710;27.258;2023-07-09T07:02:49;100195.34;;;33.00;39.08
12349;BME280;5974;42.710;27.258;2023-07-09T07:05:16;100202.09;;;33.56;38.82
12349;BME280;5974;42.710;27.258;2023-07-09T07:07:43;100201.94;;;33.64;38.14
12349;BME280;5974;42.710;27.258;2023-07-09T07:10:10;100200.22;;;33.44;39.42
12349;BME280;5974;42.710;27.258;2023-07-09T07:12:42;100213.00;;;34.73;36.80
12349;BME280;5974;42.710;27.258;2023-07-09T07:15:10;100221.38;;;34.58;36.90
12349;BME280;5974;42.710;27.258;2023-07-09T07:17:37;100214.31;;;33.00;37.92
12349;BME280;5974;42.710;27.258;2023-07-09T07:20:07;100222.72;;;31.67;40.13
12349;BME280;5974;42.710;27.258;2023-07-09T07:22:34;100201.03;;;31.19;40.32
12349;BME280;5974;42.710;27.258;2023-07-09T07:25:01;100204.88;;;32.35;38.55
12349;BME280;5974;42.710;27.258;2023-07-09T07:27:28;100218.81;;;32.32;39.44
12349;BME280;5974;42.710;27.258;2023-07-09T07:29:55;100192.63;;;32.46;38.22
12349;BME280;5974;42.710;27.258;2023-07-09T07:32:23;100217.97;;;33.46;38.10
12349;BME280;5974;42.710;27.258;2023-07-09T07:34:50;100202.31;;;31.93;38.34
12349;BME280;5974;42.710;27.258;2023-07-09T07:37:19;100205.31;;;31.77;39.42
12349;BME280;5974;42.710;27.258;2023-07-09T07:39:46;100199.25;;;32.84;38.21
12349;BME280;5974;42.710;27.258;2023-07-09T07:42:13;100206.59;;;35.30;37.12
12349;BME280;5974;42.710;27.258;2023-07-09T07:44:40;100215.03;;;34.77;36.70
12349;BME280;5974;42.710;27.258;2023-07-09T07:47:07;100205.81;;;34.27;36.22
12349;BME280;5974;42.710;27.258;2023-07-09T07:49:33;100205.59;;;34.36;36.55
12349;BME280;5974;42.710;27.258;2023-07-09T07:52:00;100201.78;;;34.43;35.82
12349;BME280;5974;42.710;27.258;2023-07-09T07:54:30;100210.22;;;33.56;37.63
12349;BME280;5974;42.710;27.258;2023-07-09T07:56:57;100196.47;;;32.64;38.12
12349;BME280;5974;42.710;27.258;2023-07-09T07:59:24;100200.22;;;31.67;39.23
12349;BME280;5974;42.710;27.258;2023-07-09T08:01:51;100195.19;;;30.79;41.04
12349;BME280;5974;42.710;27.258;2023-07-09T08:04:18;100174.19;;;29.87;41.99
12349;BME280;5974;42.710;27.258;2023-07-09T08:06:45;100203.78;;;29.35;42.72
12349;BME280;5974;42.710;27.258;2023-07-09T08:09:12;100191.72;;;28.38;44.38
12349;BME280;5974;42.710;27.258;2023-07-09T08:11:40;100188.16;;;27.75;44.27
12349;BME280;5974;42.710;27.258;2023-07-09T08:14:07;100194.00;;;28.11;45.43
12349;BME280;5974;42.710;27.258;2023-07-09T08:16:34;100188.59;;;28.02;45.57
12349;BME280;5974;42.710;27.258;2023-07-09T08:19:01;100170.19;;;27.83;44.72
12349;BME280;5974;42.710;27.258;2023-07-09T08:21:28;100189.16;;;27.82;45.12
12349;BME280;5974;42.710;27.258;2023-07-09T08:23:55;100194.56;;;27.50;46.27
12349;BME280;5974;42.710;27.258;2023-07-09T08:26:21;100153.56;;;27.39;46.55
12349;BME280;5974;42.710;27.258;2023-07-09T08:28:51;100187.84;;;27.78;46.04
12349;BME280;5974;42.710;27.258;2023-07-09T08:31:19;100188.09;;;28.15;46.03
12349;BME280;5974;42.710;27.258;2023-07-09T08:33:46;100178.47;;;28.29;46.39
12349;BME280;5974;42.710;27.258;2023-07-09T08:36:13;100187.25;;;28.53;44.89
12349;BME280;5974;42.710;27.258;2023-07-09T08:38:40;100181.94;;;28.45;45.61
12349;BME280;5974;42.710;27.258;2023-07-09T08:41:19;100175.34;;;28.01;45.45
12349;BME280;5974;42.710;27.258;2023-07-09T08:43:58;100184.63;;;28.45;44.79
12349;BME280;5974;42.710;27.258;2023-07-09T08:46:30;100176.63;;;28.29;45.56
12349;BME280;5974;42.710;27.258;2023-07-09T08:49:02;100190.78;;;28.15;44.56
12349;BME280;5974;42.710;27.258;2023-07-09T08:51:37;100191.06;;;28.28;44.47
12349;BME280;5974;42.710;27.258;2023-07-09T08:54:11;100191.84;;;27.90;45.17
12349;BME280;5974;42.710;27.258;2023-07-09T08:56:39;100164.06;;;27.97;46.74
12349;BME280;5974;42.710;27.258;2023-07-09T08:59:11;100201.13;;;28.34;44.02
12349;BME280;5974;42.710;27.258;2023-07-09T09:01:49;100198.53;;;28.10;45.22
12349;BME280;5974;42.710;27.258;2023-07-09T09:04:20;100216.63;;;28.32;44.65
12349;BME280;5974;42.710;27.258;2023-07-09T09:06:57;100193.44;;;28.62;44.60
12349;BME280;5974;42.710;27.258;2023-07-09T09:09:33;100200.84;;;28.68;43.80
12349;BME280;5974;42.710;27.258;2023-07-09T09:12:17;100194.75;;;28.35;43.80
12349;BME280;5974;42.710;27.258;2023-07-09T09:14:52;100177.19;;;28.47;45.22
12349;BME280;5974;42.710;27.258;2023-07-09T09:17:24;100176.00;;;29.12;44.53
12349;BME280;5974;42.710;27.258;2023-07-09T09:19:54;100185.31;;;29.01;43.37
12349;BME280;5974;42.710;27.258;2023-07-09T09:22:23;100192.69;;;28.84;44.39
12349;BME280;5974;42.710;27.258;2023-07-09T09:24:56;100191.75;;;28.69;44.30
12349;BME280;5974;42.710;27.258;2023-07-09T09:27:25;100194.88;;;28.81;44.09
12349;BME280;5974;42.710;27.258;2023-07-09T09:29:53;100194.25;;;28.71;44.33
12349;BME280;5974;42.710;27.258;2023-07-09T09:32:24;100197.78;;;28.79;42.77
12349;BME280;5974;42.710;27.258;2023-07-09T09:34:52;100191.28;;;28.66;42.32
12349;BME280;5974;42.710;27.258;2023-07-09T09:37:26;100197.53;;;28.50;44.12
12349;BME280;5974;42.710;27.258;2023-07-09T09:39:54;100197.50;;;28.89;43.24
12349;BME280;5974;42.710;27.258;2023-07-09T09:42:23;100192.22;;;29.03;43.93
12349;BME280;5974;42.710;27.258;2023-07-09T09:44:54;100187.72;;;29.19;43.42
12349;BME280;5974;42.710;27.258;2023-07-09T09:47:21;100202.34;;;28.71;44.71
12349;BME280;5974;42.710;27.258;2023-07-09T09:49:52;100185.56;;;28.91;44.46
12349;BME280;5974;42.710;27.258;2023-07-09T09:52:19;100180.34;;;28.59;45.10
12349;BME280;5974;42.710;27.258;2023-07-09T09:54:50;100159.53;;;28.84;44.35
12349;BME280;5974;42.710;27.258;2023-07-09T09:57:20;100179.00;;;28.94;44.95
12349;BME280;5974;42.710;27.258;2023-07-09T09:59:47;100190.81;;;28.85;45.40
12349;BME280;5974;42.710;27.258;2023-07-09T10:02:18;100160.44;;;28.37;45.63
12349;BME280;5974;42.710;27.258;2023-07-09T10:04:47;100195.84;;;29.11;44.36
12349;BME280;5974;42.710;27.258;2023-07-09T10:07:21;100175.38;;;29.01;44.17
12349;BME280;5974;42.710;27.258;2023-07-09T10:09:51;100190.22;;;29.20;45.04
12349;BME280;5974;42.710;27.258;2023-07-09T10:12:28;100180.00;;;29.38;43.88
12349;BME280;5974;42.710;27.258;2023-07-09T10:15:09;100182.16;;;29.20;42.58
12349;BME280;5974;42.710;27.258;2023-07-09T10:17:45;100184.97;;;29.49;42.91
12349;BME280;5974;42.710;27.258;2023-07-09T10:20:22;100187.13;;;29.54;42.97
12349;BME280;5974;42.710;27.258;2023-07-09T10:22:53;100195.63;;;29.20;43.58
12349;BME280;5974;42.710;27.258;2023-07-09T10:25:34;100191.81;;;29.37;44.72
12349;BME280;5974;42.710;27.258;2023-07-09T10:28:19;100180.78;;;28.79;42.99
12349;BME280;5974;42.710;27.258;2023-07-09T10:30:53;100174.44;;;29.40;42.13
12349;BME280;5974;42.710;27.258;2023-07-09T10:33:38;100183.41;;;29.55;42.72
12349;BME280;5974;42.710;27.258;2023-07-09T10:36:21;100199.53;;;29.40;42.86
12349;BME280;5974;42.710;27.258;2023-07-09T10:38:55;100192.50;;;29.54;42.14
12349;BME280;5974;42.710;27.258;2023-07-09T10:41:25;100181.09;;;29.29;43.56
12349;BME280;5974;42.710;27.258;2023-07-09T10:43:58;100181.34;;;29.57;42.89
12349;BME280;5974;42.710;27.258;2023-07-09T10:46:30;100175.53;;;29.31;42.70
12349;BME280;5974;42.710;27.258;2023-07-09T10:49:00;100196.63;;;29.27;43.11
12349;BME280;5974;42.710;27.258;2023-07-09T10:51:31;100192.47;;;29.39;42.38
12349;BME280;5974;42.710;27.258;2023-07-09T10:54:03;100183.69;;;29.60;42.85
12349;BME280;5974;42.710;27.258;2023-07-09T10:56:34;100191.09;;;29.81;42.21
12349;BME280;5974;42.710;27.258;2023-07-09T10:59:05;100186.84;;;29.64;41.33
12349;BME280;5974;42.710;27.258;2023-07-09T11:01:39;100189.53;;;30.01;42.00
12349;BME280;5974;42.710;27.258;2023-07-09T11:04:12;100184.63;;;29.67;42.52
12349;BME280;5974;42.710;27.258;2023-07-09T11:06:44;100183.13;;;30.17;41.24
12349;BME280;5974;42.710;27.258;2023-07-09T11:09:21;100182.72;;;29.90;42.80
12349;BME280;5974;42.710;27.258;2023-07-09T11:11:52;100173.22;;;29.65;41.64
12349;BME280;5974;42.710;27.258;2023-07-09T11:14:26;100179.97;;;29.46;42.41
12349;BME280;5974;42.710;27.258;2023-07-09T11:16:56;100181.94;;;29.67;42.20
12349;BME280;5974;42.710;27.258;2023-07-09T11:19:26;100171.78;;;29.92;41.71
12349;BME280;5974;42.710;27.258;2023-07-09T11:22:04;100180.13;;;29.97;41.87
12349;BME280;5974;42.710;27.258;2023-07-09T11:24:36;100180.03;;;29.90;42.46
12349;BME280;5974;42.710;27.258;2023-07-09T11:27:23;100165.38;;;29.93;41.74
12349;BME280;5974;42.710;27.258;2023-07-09T11:29:59;100173.50;;;29.70;42.26
12349;BME280;5974;42.710;27.258;2023-07-09T11:32:28;100171.41;;;29.57;42.04
12349;BME280;5974;42.710;27.258;2023-07-09T11:35:06;100179.88;;;29.69;41.74
12349;BME280;5974;42.710;27.258;2023-07-09T11:37:45;100182.47;;;30.00;41.65
12349;BME280;5974;42.710;27.258;2023-07-09T11:40:13;100176.69;;;29.88;42.42
12349;BME280;5974;42.710;27.258;2023-07-09T11:42:48;100167.69;;;29.96;42.11
12349;BME280;5974;42.710;27.258;2023-07-09T11:45:18;100173.16;;;30.02;41.99
12349;BME280;5974;42.710;27.258;2023-07-09T11:47:51;100182.94;;;30.03;42.23
12349;BME280;5974;42.710;27.258;2023-07-09T11:50:24;100177.91;;;29.86;41.10
12349;BME280;5974;42.710;27.258;2023-07-09T11:52:54;100165.84;;;30.11;41.65
12349;BME280;5974;42.710;27.258;2023-07-09T11:55:26;100183.63;;;29.31;41.69
12349;BME280;5974;42.710;27.258;2023-07-09T11:57:55;100165.03;;;29.73;40.85
12349;BME280;5974;42.710;27.258;2023-07-09T12:00:23;100163.97;;;29.97;41.31
12349;BME280;5974;42.710;27.258;2023-07-09T12:02:50;100159.03;;;30.15;41.63
12349;BME280;5974;42.710;27.258;2023-07-09T12:05:26;100178.19;;;30.20;40.92
12349;BME280;5974;42.710;27.258;2023-07-09T12:07:53;100172.13;;;30.18;41.17
12349;BME280;5974;42.710;27.258;2023-07-09T12:10:23;100163.78;;;30.13;41.97
12349;BME280;5974;42.710;27.258;2023-07-09T12:12:54;100153.91;;;30.20;41.74
12349;BME280;5974;42.710;27.258;2023-07-09T12:15:24;100167.94;;;30.30;41.28
12349;BME280;5974;42.710;27.258;2023-07-09T12:17:56;100159.75;;;30.09;41.87
12349;BME280;5974;42.710;27.258;2023-07-09T12:20:25;100163.50;;;30.23;41.21
12349;BME280;5974;42.710;27.258;2023-07-09T12:22:51;100168.81;;;30.01;41.19
12349;BME280;5974;42.710;27.258;2023-07-09T12:25:23;100150.09;;;30.00;41.07
12349;BME280;5974;42.710;27.258;2023-07-09T12:27:50;100145.25;;;30.10;40.15
12349;BME280;5974;42.710;27.258;2023-07-09T12:30:18;100169.66;;;30.02;41.97
12349;BME280;5974;42.710;27.258;2023-07-09T12:32:46;100157.34;;;29.85;41.37
12349;BME280;5974;42.710;27.258;2023-07-09T12:35:15;100144.53;;;29.87;41.97
12349;BME280;5974;42.710;27.258;2023-07-09T12:37:46;100158.28;;;30.21;41.93
12349;BME280;5974;42.710;27.258;2023-07-09T12:40:16;100154.22;;;29.96;41.10
12349;BME280;5974;42.710;27.258;2023-07-09T12:42:43;100146.44;;;30.37;41.90
12349;BME280;5974;42.710;27.258;2023-07-09T12:45:16;100137.91;;;30.48;40.83
12349;BME280;5974;42.710;27.258;2023-07-09T12:47:45;100139.03;;;30.39;41.98
12349;BME280;5974;42.710;27.258;2023-07-09T12:50:23;100133.16;;;30.35;41.00
12349;BME280;5974;42.710;27.258;2023-07-09T12:52:59;100132.53;;;30.04;41.87
12349;BME280;5974;42.710;27.258;2023-07-09T12:55:28;100131.66;;;29.74;41.63
12349;BME280;5974;42.710;27.258;2023-07-09T12:57:57;100143.69;;;29.86;42.47
12349;BME280;5974;42.710;27.258;2023-07-09T13:00:29;100134.22;;;30.05;41.76